Weather at Southbridge Municipal Airport

Public forecast

Using degrees Fahrenheit for public forecast. Weather courtesy of forecast.io.

Closest aviation weather report (METAR) to Southbridge Municipal Airport

Closest report is Worcester Regional Airport, 12.3 nm (22.8 km) NE. Retrieved 2020/09/20 02:54 UTC (30 minutes ago):

KORH 200254Z AUTO 36008KT 10SM CLR 09/M03 A3039 RMK AO2 SLP295 T00891028 51016

Closest aviation forecast (TAF) to Southbridge Municipal Airport

Closest forecast is Worcester Regional Airport, 12.3 nm (22.8 km) NE. Retrieved 2020-09-20 00:30 UTC (3 hours ago):

TAF KORH 192326Z 2000/2024 33005KT P6SM SKC FM200600 02007KT P6SM SKC FM201400 03012KT P6SM SKC FM202300 03005KT P6SM SKC